Time;durP1;ratioP1;P1;durP2;ratioP2;P2;SDS_P1;SDS_P2;PMS_P1;PMS_P2;Temp;Humidity;BMP_temperature;BMP_pressure;BME280_temperature;BME280_humidity;BME280_pressure;Samples;Min_cycle;Max_cycle;Signal;HPM_P1;HPM_P2
2023/06/17 00:02:15;;;;;;;44.63;30.75;;;;;;;;;;4954611;28;20034;-58
2023/06/17 00:04:41;;;;;;;27.27;18.90;;;;;;;;;;4955063;28;20086;-58
2023/06/17 00:07:07;;;;;;;19.85;13.45;;;;;;;;;;4954259;28;20039;-59
2023/06/17 00:09:33;;;;;;;16.73;9.68;;;;;;;;;;4954530;28;20046;-59
2023/06/17 00:12:02;;;;;;;16.80;11.50;;;;;;;;;;4954756;28;20026;-58
2023/06/17 00:14:28;;;;;;;13.50;9.65;;;;;;;;;;4954335;28;20031;-59
2023/06/17 00:16:56;;;;;;;22.08;16.17;;;;;;;;;;4954392;28;20031;-58
2023/06/17 00:19:22;;;;;;;17.33;11.43;;;;;;;;;;4954580;28;20034;-59
2023/06/17 00:21:49;;;;;;;24.90;15.93;;;;;;;;;;4954899;28;21002;-59
2023/06/17 00:24:19;;;;;;;21.75;12.93;;;;;;;;;;4954447;28;20049;-59
2023/06/17 00:26:46;;;;;;;31.38;17.67;;;;;;;;;;4943320;28;20118;-59
2023/06/17 00:29:12;;;;;;;23.20;12.95;;;;;;;;;;4953203;28;20069;-58
2023/06/17 00:31:38;;;;;;;20.35;12.52;;;;;;;;;;4954332;28;20046;-59
2023/06/17 00:34:04;;;;;;;20.38;12.32;;;;;;;;;;4954729;28;20037;-59
2023/06/17 00:36:30;;;;;;;18.92;11.82;;;;;;;;;;4954580;28;20030;-59
2023/06/17 00:38:56;;;;;;;18.65;10.45;;;;;;;;;;4954549;28;20048;-59
2023/06/17 00:41:22;;;;;;;17.13;10.10;;;;;;;;;;4952776;28;20042;-58
2023/06/17 00:43:48;;;;;;;15.70;10.38;;;;;;;;;;4954769;28;20096;-59
2023/06/17 00:46:28;;;;;;;17.00;10.93;;;;;;;;;;4954268;28;20572;-58
2023/06/17 00:48:55;;;;;;;19.02;11.65;;;;;;;;;;4954910;28;20034;-58
2023/06/17 00:51:21;;;;;;;21.30;13.52;;;;;;;;;;4954622;28;20588;-59
2023/06/17 00:53:47;;;;;;;20.52;14.25;;;;;;;;;;4954344;28;20058;-59
2023/06/17 00:56:17;;;;;;;20.10;11.88;;;;;;;;;;4953920;28;20942;-58
2023/06/17 00:58:43;;;;;;;17.38;10.27;;;;;;;;;;4954336;28;20027;-59
2023/06/17 01:01:09;;;;;;;15.68;9.93;;;;;;;;;;4954489;28;20062;-58
2023/06/17 01:03:35;;;;;;;17.13;10.63;;;;;;;;;;4954518;28;20069;-59
2023/06/17 01:06:03;;;;;;;15.07;10.50;;;;;;;;;;4954818;28;21942;-59
2023/06/17 01:08:29;;;;;;;16.63;11.10;;;;;;;;;;4954150;28;20097;-59
2023/06/17 01:10:59;;;;;;;15.75;11.00;;;;;;;;;;4953198;28;20042;-59
2023/06/17 01:13:27;;;;;;;18.00;10.93;;;;;;;;;;4936792;28;20042;-58
2023/06/17 01:15:53;;;;;;;18.85;11.65;;;;;;;;;;4954492;28;20158;-59
2023/06/17 01:18:20;;;;;;;17.67;11.52;;;;;;;;;;4952322;28;20153;-59
2023/06/17 01:20:51;;;;;;;19.30;11.65;;;;;;;;;;4954816;28;20173;-58
2023/06/17 01:23:21;;;;;;;20.65;11.38;;;;;;;;;;4958328;28;20023;-59
2023/06/17 01:25:47;;;;;;;28.80;14.82;;;;;;;;;;4957773;28;20152;-58
2023/06/17 01:28:19;;;;;;;21.50;12.00;;;;;;;;;;4958230;28;20027;-58
2023/06/17 01:30:45;;;;;;;20.65;12.07;;;;;;;;;;4957612;28;20027;-58
2023/06/17 01:33:13;;;;;;;23.40;14.02;;;;;;;;;;4958074;28;20045;-58
2023/06/17 01:35:40;;;;;;;19.73;12.98;;;;;;;;;;4956970;28;21921;-58
2023/06/17 01:38:08;;;;;;;17.85;11.75;;;;;;;;;;4957623;28;20073;-59
2023/06/17 01:40:35;;;;;;;20.17;12.45;;;;;;;;;;4958114;28;20077;-59
2023/06/17 01:43:02;;;;;;;20.95;11.77;;;;;;;;;;4957326;28;20026;-58
2023/06/17 01:45:29;;;;;;;18.27;11.82;;;;;;;;;;4957911;28;20182;-59
2023/06/17 01:47:55;;;;;;;22.98;14.05;;;;;;;;;;4956741;28;20398;-59
2023/06/17 01:50:21;;;;;;;22.58;13.68;;;;;;;;;;4956349;28;20049;-59
2023/06/17 01:52:47;;;;;;;22.25;13.25;;;;;;;;;;4955556;28;20504;-59
2023/06/17 01:55:14;;;;;;;16.65;10.82;;;;;;;;;;4957010;28;20112;-58
2023/06/17 01:57:40;;;;;;;18.50;11.93;;;;;;;;;;4957078;28;21202;-58
2023/06/17 02:00:07;;;;;;;21.83;12.02;;;;;;;;;;4956283;28;20085;-59
2023/06/17 02:02:33;;;;;;;16.90;12.85;;;;;;;;;;4957566;28;20125;-59
2023/06/17 02:04:59;;;;;;;22.38;13.77;;;;;;;;;;4956901;28;20043;-58
2023/06/17 02:07:25;;;;;;;23.73;15.13;;;;;;;;;;4957836;28;20043;-59
2023/06/17 02:09:52;;;;;;;18.73;11.70;;;;;;;;;;4956176;28;20051;-59
2023/06/17 02:12:18;;;;;;;23.02;12.93;;;;;;;;;;4956996;28;20031;-59
2023/06/17 02:14:44;;;;;;;22.55;11.52;;;;;;;;;;4956821;28;21409;-58
2023/06/17 02:17:11;;;;;;;17.00;11.73;;;;;;;;;;4956516;28;20161;-58
2023/06/17 02:19:37;;;;;;;16.48;11.65;;;;;;;;;;4957396;28;20084;-58
2023/06/17 02:22:04;;;;;;;20.38;11.55;;;;;;;;;;4952586;28;20046;-59
2023/06/17 02:24:30;;;;;;;15.75;12.80;;;;;;;;;;4957386;28;21096;-59
2023/06/17 02:26:57;;;;;;;19.58;12.43;;;;;;;;;;4956854;28;20620;-59
2023/06/17 02:29:23;;;;;;;25.48;13.30;;;;;;;;;;4955422;28;20077;-58
2023/06/17 02:31:49;;;;;;;24.73;16.15;;;;;;;;;;4955698;28;20035;-58
2023/06/17 02:34:15;;;;;;;22.08;14.07;;;;;;;;;;4956609;28;20018;-58
2023/06/17 02:36:42;;;;;;;16.85;12.70;;;;;;;;;;4956600;28;20505;-58
2023/06/17 02:39:08;;;;;;;18.27;13.30;;;;;;;;;;4957052;28;20042;-58
2023/06/17 02:41:34;;;;;;;24.42;12.10;;;;;;;;;;4956996;28;20027;-59
2023/06/17 02:44:00;;;;;;;20.52;12.10;;;;;;;;;;4956788;28;20041;-59
2023/06/17 02:46:26;;;;;;;19.73;11.50;;;;;;;;;;4956528;28;20583;-59
2023/06/17 02:48:52;;;;;;;20.05;12.65;;;;;;;;;;4957364;28;20038;-59
2023/06/17 02:51:20;;;;;;;17.27;11.90;;;;;;;;;;4956960;28;20042;-59
2023/06/17 02:53:46;;;;;;;17.13;11.93;;;;;;;;;;4957642;28;20035;-59
2023/06/17 02:56:12;;;;;;;18.83;11.80;;;;;;;;;;4956211;28;20034;-59
2023/06/17 02:58:38;;;;;;;16.10;11.18;;;;;;;;;;4957125;28;20038;-58
2023/06/17 03:01:05;;;;;;;15.60;11.18;;;;;;;;;;4956101;28;20046;-58
2023/06/17 03:03:35;;;;;;;16.92;11.90;;;;;;;;;;4956362;28;20042;-59
2023/06/17 03:06:03;;;;;;;16.45;11.32;;;;;;;;;;4957180;28;20088;-59
2023/06/17 03:08:36;;;;;;;15.93;11.00;;;;;;;;;;4956689;28;20066;-58
2023/06/17 03:11:02;;;;;;;15.10;10.70;;;;;;;;;;4957198;28;20481;-58
2023/06/17 03:13:29;;;;;;;17.23;11.60;;;;;;;;;;4956262;28;20038;-58
2023/06/17 03:15:55;;;;;;;15.35;11.18;;;;;;;;;;4956113;28;20042;-58
2023/06/17 03:18:22;;;;;;;21.90;12.95;;;;;;;;;;4956580;28;20734;-58
2023/06/17 03:20:53;;;;;;;18.02;11.88;;;;;;;;;;4956857;28;20058;-58
2023/06/17 03:23:22;;;;;;;16.70;12.52;;;;;;;;;;4956900;28;20065;-58
2023/06/17 03:25:48;;;;;;;19.33;12.30;;;;;;;;;;4956499;28;20096;-58
2023/06/17 03:28:15;;;;;;;18.35;12.82;;;;;;;;;;4956788;28;20122;-58
2023/06/17 03:30:42;;;;;;;16.92;12.55;;;;;;;;;;4955474;28;20038;-59
2023/06/17 03:33:09;;;;;;;19.23;12.48;;;;;;;;;;4956051;28;20034;-59
2023/06/17 03:35:35;;;;;;;19.48;14.23;;;;;;;;;;4956152;28;20536;-58
2023/06/17 03:38:01;;;;;;;20.13;14.10;;;;;;;;;;4955559;28;20070;-58
2023/06/17 03:40:27;;;;;;;30.02;18.02;;;;;;;;;;4956745;28;20045;-58
2023/06/17 03:42:54;;;;;;;24.50;14.80;;;;;;;;;;4955352;28;20541;-58
2023/06/17 03:45:20;;;;;;;21.08;12.90;;;;;;;;;;4955749;28;20038;-59
2023/06/17 03:47:47;;;;;;;18.98;12.82;;;;;;;;;;4956202;28;20085;-59
2023/06/17 03:50:13;;;;;;;26.38;15.40;;;;;;;;;;4955992;28;20038;-59
2023/06/17 03:52:39;;;;;;;38.05;18.35;;;;;;;;;;4956121;28;20026;-59
2023/06/17 03:55:05;;;;;;;26.38;15.80;;;;;;;;;;4955660;28;20037;-59
2023/06/17 03:57:32;;;;;;;17.92;11.32;;;;;;;;;;4954820;28;20035;-59
2023/06/17 03:59:58;;;;;;;19.75;12.75;;;;;;;;;;4953119;28;20180;-58
2023/06/17 04:02:24;;;;;;;15.55;11.05;;;;;;;;;;4955359;28;20038;-59
2023/06/17 04:04:52;;;;;;;21.20;13.30;;;;;;;;;;4954820;28;21232;-58
2023/06/17 04:07:19;;;;;;;32.38;17.80;;;;;;;;;;4954298;28;20042;-58
2023/06/17 04:09:45;;;;;;;19.98;11.70;;;;;;;;;;4955139;28;20043;-59
2023/06/17 04:12:12;;;;;;;17.30;10.98;;;;;;;;;;4954656;28;20129;-58
2023/06/17 04:14:38;;;;;;;18.17;11.38;;;;;;;;;;4955939;28;20117;-59
2023/06/17 04:17:06;;;;;;;15.68;10.35;;;;;;;;;;4955208;28;20126;-58
2023/06/17 04:19:37;;;;;;;15.15;10.77;;;;;;;;;;4956122;28;21798;-58
2023/06/17 04:22:03;;;;;;;16.45;10.45;;;;;;;;;;4953664;28;20153;-58
2023/06/17 04:24:29;;;;;;;26.38;14.82;;;;;;;;;;4954974;28;20047;-59
2023/06/17 04:26:55;;;;;;;20.55;12.80;;;;;;;;;;4955161;28;20039;-58
2023/06/17 04:29:21;;;;;;;18.70;11.75;;;;;;;;;;4954881;28;20041;-59
2023/06/17 04:31:47;;;;;;;28.25;14.43;;;;;;;;;;4955369;28;20710;-59
2023/06/17 04:34:21;;;;;;;22.40;12.82;;;;;;;;;;4955089;28;20733;-58
2023/06/17 04:36:49;;;;;;;;;;;;;;;;;;4956280;28;20536;-59
2023/06/17 04:39:15;;;;;;;17.33;10.55;;;;;;;;;;4954179;28;19918;-58
2023/06/17 04:41:45;;;;;;;16.70;11.35;;;;;;;;;;4955162;28;20027;-58
2023/06/17 04:44:12;;;;;;;15.77;11.70;;;;;;;;;;4955332;28;20045;-58
2023/06/17 04:46:38;;;;;;;22.50;13.48;;;;;;;;;;4955122;28;20027;-59
2023/06/17 04:49:04;;;;;;;18.92;11.85;;;;;;;;;;4953749;28;20038;-58
2023/06/17 04:51:31;;;;;;;17.92;11.77;;;;;;;;;;4954769;28;20742;-58
2023/06/17 04:53:57;;;;;;;21.08;12.57;;;;;;;;;;4955330;28;20026;-58
2023/06/17 04:56:26;;;;;;;32.47;17.80;;;;;;;;;;4954453;28;20069;-59
2023/06/17 04:58:52;;;;;;;21.63;12.00;;;;;;;;;;4954649;28;20051;-59
2023/06/17 05:01:19;;;;;;;20.35;13.45;;;;;;;;;;4955070;28;20038;-58
2023/06/17 05:03:45;;;;;;;16.75;13.27;;;;;;;;;;4953339;28;20053;-58
2023/06/17 05:06:11;;;;;;;36.40;18.00;;;;;;;;;;4955029;28;20041;-58
2023/06/17 05:08:37;;;;;;;34.38;18.92;;;;;;;;;;4954542;28;20098;-59
2023/06/17 05:11:03;;;;;;;24.38;14.77;;;;;;;;;;4954458;28;20039;-59
2023/06/17 05:13:29;;;;;;;17.88;12.65;;;;;;;;;;4954358;28;20030;-59
2023/06/17 05:15:55;;;;;;;21.05;14.32;;;;;;;;;;4954368;28;20035;-58
2023/06/17 05:18:21;;;;;;;21.17;15.15;;;;;;;;;;4954858;28;20477;-59
2023/06/17 05:20:47;;;;;;;22.33;14.90;;;;;;;;;;4955016;28;20532;-58
2023/06/17 05:23:13;;;;;;;25.33;17.55;;;;;;;;;;4954602;28;20053;-58
2023/06/17 05:25:39;;;;;;;21.33;15.82;;;;;;;;;;4954748;28;20042;-59
2023/06/17 05:28:06;;;;;;;20.92;16.60;;;;;;;;;;4954995;28;20517;-58
2023/06/17 05:30:32;;;;;;;37.25;22.70;;;;;;;;;;4953595;28;20117;-58
2023/06/17 05:32:58;;;;;;;23.60;17.58;;;;;;;;;;4954930;28;20045;-59
2023/06/17 05:35:26;;;;;;;22.98;15.60;;;;;;;;;;4954545;28;20031;-58
2023/06/17 05:37:52;;;;;;;18.98;13.75;;;;;;;;;;4953955;28;20758;-58
2023/06/17 05:40:18;;;;;;;15.70;12.10;;;;;;;;;;4954927;28;20947;-58
2023/06/17 05:42:44;;;;;;;18.48;13.15;;;;;;;;;;4954209;28;20069;-58
2023/06/17 05:45:10;;;;;;;18.25;11.90;;;;;;;;;;4953909;28;20129;-58
2023/06/17 05:47:36;;;;;;;19.75;11.85;;;;;;;;;;4954154;28;20070;-59
2023/06/17 05:50:02;;;;;;;33.22;18.20;;;;;;;;;;4953311;28;20042;-58
2023/06/17 05:52:28;;;;;;;27.65;14.38;;;;;;;;;;4954480;28;20030;-58
2023/06/17 05:54:54;;;;;;;19.63;11.63;;;;;;;;;;4954175;28;20026;-58
2023/06/17 05:57:21;;;;;;;15.40;11.23;;;;;;;;;;4954307;28;20043;-59
2023/06/17 05:59:47;;;;;;;15.52;11.05;;;;;;;;;;4953854;28;20172;-58
2023/06/17 06:02:13;;;;;;;16.20;10.90;;;;;;;;;;4953715;28;20124;-58
2023/06/17 06:04:39;;;;;;;23.00;14.02;;;;;;;;;;4953257;28;20078;-59
2023/06/17 06:07:05;;;;;;;17.90;11.75;;;;;;;;;;4952543;28;20043;-60
2023/06/17 06:09:31;;;;;;;23.42;14.60;;;;;;;;;;4955826;28;20055;-58
2023/06/17 06:11:57;;;;;;;19.63;12.63;;;;;;;;;;4955917;28;20113;-58
2023/06/17 06:14:23;;;;;;;25.00;15.38;;;;;;;;;;4955952;28;20041;-58
2023/06/17 06:16:49;;;;;;;20.13;13.98;;;;;;;;;;4956616;28;20030;-59
2023/06/17 06:19:16;;;;;;;18.83;12.25;;;;;;;;;;4957552;28;20093;-58
2023/06/17 06:21:42;;;;;;;28.48;15.88;;;;;;;;;;4957792;28;20166;-58
2023/06/17 06:24:08;;;;;;;20.63;12.98;;;;;;;;;;4956594;28;21978;-58
2023/06/17 06:26:34;;;;;;;25.55;14.70;;;;;;;;;;4957558;28;20143;-59
2023/06/17 06:29:00;;;;;;;24.95;14.95;;;;;;;;;;4956921;28;20034;-58
2023/06/17 06:31:26;;;;;;;22.13;13.75;;;;;;;;;;4957118;28;20030;-59
2023/06/17 06:33:52;;;;;;;16.95;12.52;;;;;;;;;;4956745;28;20034;-58
2023/06/17 06:36:18;;;;;;;17.27;12.15;;;;;;;;;;4956447;28;21774;-58
2023/06/17 06:38:44;;;;;;;18.95;13.90;;;;;;;;;;4957447;28;20041;-58
2023/06/17 06:41:10;;;;;;;19.05;13.57;;;;;;;;;;4957242;28;20090;-58
2023/06/17 06:43:36;;;;;;;19.33;13.98;;;;;;;;;;4957204;28;20405;-59
2023/06/17 06:46:02;;;;;;;18.73;12.65;;;;;;;;;;4956822;28;20577;-58
2023/06/17 06:48:28;;;;;;;18.95;13.13;;;;;;;;;;4957020;28;20123;-58
2023/06/17 06:50:54;;;;;;;19.17;13.35;;;;;;;;;;4955834;28;20141;-59
2023/06/17 06:53:23;;;;;;;18.00;12.15;;;;;;;;;;4957178;28;20030;-58
2023/06/17 06:55:49;;;;;;;18.40;12.60;;;;;;;;;;4956487;28;20121;-59
2023/06/17 06:58:16;;;;;;;21.50;13.07;;;;;;;;;;4956663;28;20054;-58
2023/06/17 07:00:42;;;;;;;16.58;12.75;;;;;;;;;;4956796;28;20039;-59
2023/06/17 07:03:08;;;;;;;16.45;13.40;;;;;;;;;;4929028;28;20034;-58
2023/06/17 07:05:34;;;;;;;15.63;11.73;;;;;;;;;;4956028;28;20077;-58
2023/06/17 07:08:01;;;;;;;16.33;13.00;;;;;;;;;;4956215;28;20031;-59
2023/06/17 07:10:27;;;;;;;14.68;11.77;;;;;;;;;;4956678;28;20038;-58
2023/06/17 07:12:53;;;;;;;14.77;11.60;;;;;;;;;;4957020;28;20031;-58
2023/06/17 07:15:19;;;;;;;20.08;13.25;;;;;;;;;;4956098;28;20130;-58
2023/06/17 07:17:45;;;;;;;15.30;10.48;;;;;;;;;;4956323;28;20035;-58
2023/06/17 07:20:11;;;;;;;15.18;10.90;;;;;;;;;;4955581;28;20034;-58
2023/06/17 07:22:37;;;;;;;15.52;9.95;;;;;;;;;;4956956;28;20042;-59
2023/06/17 07:25:04;;;;;;;14.98;10.60;;;;;;;;;;4956242;28;20031;-58
2023/06/17 07:27:30;;;;;;;17.33;11.13;;;;;;;;;;4956239;28;21433;-59
2023/06/17 07:29:56;;;;;;;17.27;10.90;;;;;;;;;;4938934;28;20063;-58
2023/06/17 07:32:22;;;;;;;13.10;9.55;;;;;;;;;;4954984;28;20038;-66
2023/06/17 07:34:48;;;;;;;12.45;8.85;;;;;;;;;;4953961;28;20034;-65
2023/06/17 07:37:14;;;;;;;15.23;10.18;;;;;;;;;;4956140;28;20030;-65
2023/06/17 07:39:40;;;;;;;17.73;11.82;;;;;;;;;;4956049;28;20039;-65
2023/06/17 07:42:06;;;;;;;17.83;10.70;;;;;;;;;;4955973;28;20038;-65
2023/06/17 07:44:32;;;;;;;16.10;10.35;;;;;;;;;;4956350;28;20039;-65
2023/06/17 07:46:58;;;;;;;16.30;10.80;;;;;;;;;;4955524;28;21011;-65
2023/06/17 07:49:25;;;;;;;15.07;10.63;;;;;;;;;;4955749;28;20463;-65
2023/06/17 07:51:51;;;;;;;19.40;10.73;;;;;;;;;;4955714;28;20760;-65
2023/06/17 07:54:17;;;;;;;16.20;9.70;;;;;;;;;;4955842;28;20042;-65
2023/06/17 07:56:43;;;;;;;17.30;9.98;;;;;;;;;;4955492;28;20038;-65
2023/06/17 07:59:09;;;;;;;15.77;9.98;;;;;;;;;;4956163;28;20295;-65
2023/06/17 08:01:37;;;;;;;14.65;9.13;;;;;;;;;;4953249;28;20039;-65
2023/06/17 08:04:03;;;;;;;14.43;8.80;;;;;;;;;;4954260;28;20182;-65
2023/06/17 08:06:29;;;;;;;13.77;9.30;;;;;;;;;;4954925;28;20038;-65
2023/06/17 08:08:55;;;;;;;14.15;9.48;;;;;;;;;;4954969;28;20058;-65
2023/06/17 08:11:21;;;;;;;14.60;9.55;;;;;;;;;;4954841;28;20053;-65
2023/06/17 08:13:47;;;;;;;13.80;9.30;;;;;;;;;;4952677;28;20041;-65
2023/06/17 08:16:13;;;;;;;16.90;10.07;;;;;;;;;;4953451;28;20030;-65
2023/06/17 08:18:39;;;;;;;18.23;10.18;;;;;;;;;;4953387;28;20122;-65
2023/06/17 08:21:05;;;;;;;14.07;10.23;;;;;;;;;;4954480;28;20086;-65
2023/06/17 08:23:31;;;;;;;18.15;10.18;;;;;;;;;;4953897;28;20057;-64
2023/06/17 08:25:58;;;;;;;13.32;9.13;;;;;;;;;;4954647;28;20052;-65
2023/06/17 08:28:24;;;;;;;16.85;10.30;;;;;;;;;;4954375;28;20035;-65
2023/06/17 08:30:51;;;;;;;15.18;9.57;;;;;;;;;;4954024;28;20039;-65
2023/06/17 08:33:17;;;;;;;14.35;9.65;;;;;;;;;;4954930;28;20065;-65
2023/06/17 08:35:43;;;;;;;15.30;9.23;;;;;;;;;;4954655;28;20149;-65
2023/06/17 08:38:09;;;;;;;12.20;8.23;;;;;;;;;;4955050;28;20139;-65
2023/06/17 08:40:36;;;;;;;15.45;9.48;;;;;;;;;;4954657;28;20066;-65
2023/06/17 08:43:03;;;;;;;13.80;8.90;;;;;;;;;;4953355;28;20035;-65
2023/06/17 08:45:29;;;;;;;12.02;8.30;;;;;;;;;;4955149;28;20066;-65
2023/06/17 08:47:55;;;;;;;19.65;11.63;;;;;;;;;;4954784;28;20034;-65
2023/06/17 08:50:22;;;;;;;14.32;8.48;;;;;;;;;;4954633;28;20027;-65
2023/06/17 08:52:49;;;;;;;13.70;9.15;;;;;;;;;;4937127;28;20121;-65
2023/06/17 08:55:17;;;;;;;14.40;9.40;;;;;;;;;;4955154;28;20022;-64
2023/06/17 08:57:43;;;;;;;12.85;9.98;;;;;;;;;;4953266;28;20118;-66
2023/06/17 09:00:10;;;;;;;14.45;9.18;;;;;;;;;;4954696;28;20038;-65
2023/06/17 09:02:37;;;;;;;13.02;8.80;;;;;;;;;;4954818;28;20034;-65
2023/06/17 09:05:04;;;;;;;14.50;8.98;;;;;;;;;;4954362;28;20123;-65
2023/06/17 09:07:30;;;;;;;14.95;8.18;;;;;;;;;;4954229;28;20130;-65
2023/06/17 09:10:03;;;;;;;16.00;8.25;;;;;;;;;;4953555;28;20749;-65
2023/06/17 09:12:36;;;;;;;12.07;7.85;;;;;;;;;;4955043;28;21384;-65
2023/06/17 09:15:02;;;;;;;14.10;8.88;;;;;;;;;;4954965;28;20027;-65
2023/06/17 09:17:32;;;;;;;15.73;8.68;;;;;;;;;;4953714;28;20042;-65
2023/06/17 09:20:11;;;;;;;14.00;8.40;;;;;;;;;;4953929;28;21806;-65
2023/06/17 09:22:41;;;;;;;17.90;9.43;;;;;;;;;;4954096;28;20485;-65
2023/06/17 09:25:14;;;;;;;14.77;9.32;;;;;;;;;;4953385;28;20061;-65
2023/06/17 09:27:50;;;;;;;12.65;8.60;;;;;;;;;;4954256;28;20125;-64
2023/06/17 09:30:17;;;;;;;14.73;8.73;;;;;;;;;;4954209;28;20070;-65
2023/06/17 09:32:44;;;;;;;19.38;9.45;;;;;;;;;;4953134;28;20897;-65
2023/06/17 09:35:16;;;;;;;16.15;8.73;;;;;;;;;;4953971;28;20058;-65
2023/06/17 09:37:49;;;;;;;12.03;7.70;;;;;;;;;;4953141;28;20169;-65
2023/06/17 09:40:15;;;;;;;;;;;;;;;;;;4953719;28;20116;-65
2023/06/17 09:42:44;;;;;;;11.90;7.68;;;;;;;;;;4954334;28;20008;-65
2023/06/17 09:45:12;;;;;;;12.43;7.45;;;;;;;;;;4957455;28;20034;-65
2023/06/17 09:47:38;;;;;;;12.73;7.50;;;;;;;;;;4957654;28;20161;-65
2023/06/17 09:50:08;;;;;;;11.93;7.05;;;;;;;;;;4957578;28;20031;-65
2023/06/17 09:52:35;;;;;;;12.40;6.55;;;;;;;;;;4957669;28;20038;-65
2023/06/17 09:55:02;;;;;;;12.38;7.30;;;;;;;;;;4957766;28;20056;-65
2023/06/17 09:57:32;;;;;;;11.32;6.28;;;;;;;;;;4956686;28;20030;-65
2023/06/17 10:00:00;;;;;;;11.30;6.68;;;;;;;;;;4957590;28;20038;-64
2023/06/17 10:02:27;;;;;;;13.50;7.00;;;;;;;;;;4955646;28;20035;-64
2023/06/17 10:04:53;;;;;;;14.23;7.32;;;;;;;;;;4957309;28;20038;-65
2023/06/17 10:07:24;;;;;;;12.23;7.68;;;;;;;;;;4955826;28;20045;-65
2023/06/17 10:09:51;;;;;;;12.32;7.15;;;;;;;;;;4957576;28;20053;-65
2023/06/17 10:12:17;;;;;;;13.13;7.40;;;;;;;;;;4956987;28;20027;-65
2023/06/17 10:14:45;;;;;;;10.60;6.80;;;;;;;;;;4954812;28;20038;-64
2023/06/17 10:17:12;;;;;;;13.45;6.80;;;;;;;;;;4957027;28;20052;-65
2023/06/17 10:19:41;;;;;;;12.13;7.05;;;;;;;;;;4939909;28;20034;-64
2023/06/17 10:22:10;;;;;;;13.38;7.32;;;;;;;;;;4956934;28;20022;-65
2023/06/17 10:24:37;;;;;;;11.73;7.50;;;;;;;;;;4955585;28;20039;-64
2023/06/17 10:27:03;;;;;;;14.18;7.55;;;;;;;;;;4955502;28;20035;-65
2023/06/17 10:29:29;;;;;;;13.40;8.23;;;;;;;;;;4956548;28;20474;-65
2023/06/17 10:31:55;;;;;;;12.52;7.30;;;;;;;;;;4954666;28;20039;-65
2023/06/17 10:34:22;;;;;;;12.07;7.50;;;;;;;;;;4956564;28;20105;-65
2023/06/17 10:36:58;;;;;;;12.52;7.28;;;;;;;;;;4956031;28;20077;-65
2023/06/17 10:39:24;;;;;;;10.85;6.32;;;;;;;;;;4956710;28;20104;-64
2023/06/17 10:41:50;;;;;;;11.88;7.43;;;;;;;;;;4956592;28;20043;-64
2023/06/17 10:44:40;;;;;;;13.45;7.47;;;;;;;;;;4956551;28;21007;-65
2023/06/17 10:47:16;;;;;;;14.45;7.70;;;;;;;;;;4955705;28;20042;-64
2023/06/17 10:49:43;;;;;;;10.82;7.65;;;;;;;;;;4956897;28;20045;-65
2023/06/17 10:52:12;;;;;;;15.20;7.18;;;;;;;;;;4954818;28;20031;-65
2023/06/17 10:54:46;;;;;;;13.18;7.55;;;;;;;;;;4956087;28;20049;-65
2023/06/17 10:57:12;;;;;;;13.48;8.30;;;;;;;;;;4956726;28;20556;-65
2023/06/17 10:59:38;;;;;;;12.60;7.55;;;;;;;;;;4955763;28;20038;-65
2023/06/17 11:02:08;;;;;;;13.02;7.40;;;;;;;;;;4956035;28;20035;-65
2023/06/17 11:04:42;;;;;;;12.52;7.57;;;;;;;;;;4954132;28;20027;-64
2023/06/17 11:07:08;;;;;;;16.25;8.98;;;;;;;;;;4938485;28;20039;-64
2023/06/17 11:09:35;;;;;;;11.10;7.00;;;;;;;;;;4955893;28;20086;-64
2023/06/17 11:12:02;;;;;;;13.43;7.70;;;;;;;;;;4955083;28;20903;-65
2023/06/17 11:14:29;;;;;;;25.60;11.07;;;;;;;;;;4955419;28;20134;-65
2023/06/17 11:16:55;;;;;;;14.73;7.45;;;;;;;;;;4954129;28;20485;-65
2023/06/17 11:19:22;;;;;;;11.95;6.88;;;;;;;;;;4955560;28;20030;-65
2023/06/17 11:21:51;;;;;;;11.60;7.03;;;;;;;;;;4955231;28;20031;-65
2023/06/17 11:24:18;;;;;;;11.20;7.55;;;;;;;;;;4956249;28;20037;-65
2023/06/17 11:26:44;;;;;;;12.82;7.88;;;;;;;;;;4954678;28;20042;-64
2023/06/17 11:29:10;;;;;;;11.25;7.40;;;;;;;;;;4955743;28;20118;-64
2023/06/17 11:31:36;;;;;;;12.63;7.97;;;;;;;;;;4955812;28;20076;-65
2023/06/17 11:34:02;;;;;;;10.70;6.88;;;;;;;;;;4954698;28;20059;-65
2023/06/17 11:36:29;;;;;;;11.35;7.10;;;;;;;;;;4956342;28;20035;-65
2023/06/17 11:38:55;;;;;;;12.18;6.60;;;;;;;;;;4955706;28;21992;-65
2023/06/17 11:41:25;;;;;;;14.43;7.13;;;;;;;;;;4955457;28;20042;-64
2023/06/17 11:43:51;;;;;;;12.23;7.32;;;;;;;;;;4955617;28;20038;-65
2023/06/17 11:46:20;;;;;;;11.23;6.68;;;;;;;;;;4955821;28;21278;-65
2023/06/17 11:48:48;;;;;;;10.25;6.78;;;;;;;;;;4955605;28;20039;-65
2023/06/17 11:51:17;;;;;;;12.25;7.07;;;;;;;;;;4954445;28;22032;-64
2023/06/17 11:53:44;;;;;;;13.25;7.95;;;;;;;;;;4936748;28;20620;-65
2023/06/17 11:56:11;;;;;;;13.10;7.80;;;;;;;;;;4955262;28;20065;-64
2023/06/17 11:58:39;;;;;;;12.52;6.72;;;;;;;;;;4955076;28;21083;-65
2023/06/17 12:01:06;;;;;;;11.88;7.32;;;;;;;;;;4955071;28;20042;-65
2023/06/17 12:03:32;;;;;;;11.48;6.43;;;;;;;;;;4954952;28;20043;-64
2023/06/17 12:05:59;;;;;;;14.93;6.78;;;;;;;;;;4952962;28;20153;-64
2023/06/17 12:08:32;;;;;;;12.75;6.90;;;;;;;;;;4953996;28;20062;-64
2023/06/17 12:10:58;;;;;;;;;;;;;;;;;;4955316;28;20035;-65
2023/06/17 12:13:24;;;;;;;12.07;6.38;;;;;;;;;;4955784;28;20012;-65
2023/06/17 12:15:50;;;;;;;11.60;6.97;;;;;;;;;;4955164;28;20926;-64
2023/06/17 12:18:18;;;;;;;12.07;6.28;;;;;;;;;;4955164;28;20050;-65
2023/06/17 12:20:48;;;;;;;12.23;6.22;;;;;;;;;;4954865;28;20062;-65
2023/06/17 12:23:14;;;;;;;11.38;6.45;;;;;;;;;;4954899;28;20038;-64
2023/06/17 12:25:41;;;;;;;15.95;6.82;;;;;;;;;;4954226;28;20058;-65
2023/06/17 12:28:07;;;;;;;11.10;6.60;;;;;;;;;;4954940;28;20041;-65
2023/06/17 12:30:34;;;;;;;11.32;6.80;;;;;;;;;;4953581;28;20035;-65
2023/06/17 12:33:00;;;;;;;12.75;7.13;;;;;;;;;;4953003;28;20027;-64
2023/06/17 12:35:27;;;;;;;12.07;7.18;;;;;;;;;;4951515;28;20034;-65
2023/06/17 12:37:55;;;;;;;11.80;7.47;;;;;;;;;;4952649;28;20039;-65
2023/06/17 12:40:21;;;;;;;12.45;7.00;;;;;;;;;;4954218;28;20065;-64
2023/06/17 12:42:47;;;;;;;9.63;6.47;;;;;;;;;;4954256;28;20045;-64
2023/06/17 12:45:13;;;;;;;12.35;7.28;;;;;;;;;;4953204;28;21862;-65
2023/06/17 12:47:39;;;;;;;13.85;7.32;;;;;;;;;;4953523;28;20042;-65
2023/06/17 12:50:06;;;;;;;12.77;6.85;;;;;;;;;;4954706;28;20120;-65
2023/06/17 12:52:34;;;;;;;12.23;6.65;;;;;;;;;;4953603;28;20176;-65
2023/06/17 12:55:00;;;;;;;11.25;6.75;;;;;;;;;;4954108;28;21656;-64
2023/06/17 12:57:30;;;;;;;11.35;6.60;;;;;;;;;;4954269;28;21881;-64
2023/06/17 12:59:56;;;;;;;12.40;6.20;;;;;;;;;;4953684;28;20078;-64
2023/06/17 13:02:22;;;;;;;12.52;7.20;;;;;;;;;;4953991;28;20546;-64
2023/06/17 13:04:48;;;;;;;13.25;6.95;;;;;;;;;;4954059;28;20034;-65
2023/06/17 13:07:14;;;;;;;10.75;6.22;;;;;;;;;;4954332;28;20038;-64
2023/06/17 13:09:40;;;;;;;11.60;7.40;;;;;;;;;;4954551;28;20054;-65
2023/06/17 13:12:07;;;;;;;10.85;6.20;;;;;;;;;;4954248;28;20026;-65
2023/06/17 13:14:34;;;;;;;12.35;7.40;;;;;;;;;;4953552;28;20035;-64
2023/06/17 13:17:00;;;;;;;12.15;6.82;;;;;;;;;;4952601;28;20397;-65
2023/06/17 13:19:27;;;;;;;12.32;6.20;;;;;;;;;;4957627;28;20109;-64
2023/06/17 13:21:53;;;;;;;10.27;6.15;;;;;;;;;;4957965;28;21870;-64
2023/06/17 13:24:20;;;;;;;27.40;8.25;;;;;;;;;;4959025;28;20043;-64
2023/06/17 13:26:46;;;;;;;12.02;6.95;;;;;;;;;;4958602;28;20045;-64
2023/06/17 13:29:12;;;;;;;14.20;7.57;;;;;;;;;;4958709;28;20039;-64
2023/06/17 13:31:39;;;;;;;12.00;6.70;;;;;;;;;;4958776;28;20608;-64
2023/06/17 13:34:06;;;;;;;11.65;6.93;;;;;;;;;;4957177;28;20043;-65
2023/06/17 13:36:32;;;;;;;11.48;6.60;;;;;;;;;;4930319;28;20066;-65
2023/06/17 13:38:58;;;;;;;8.68;6.07;;;;;;;;;;4957768;28;20039;-64
2023/06/17 13:41:30;;;;;;;13.05;6.93;;;;;;;;;;4958160;28;20043;-64
2023/06/17 13:43:56;;;;;;;12.63;6.70;;;;;;;;;;4958173;28;20109;-64
2023/06/17 13:46:22;;;;;;;11.30;6.32;;;;;;;;;;4958530;28;20140;-64
2023/06/17 13:48:50;;;;;;;10.18;7.00;;;;;;;;;;4956299;28;20046;-65
2023/06/17 13:51:16;;;;;;;11.70;6.57;;;;;;;;;;4956030;28;20139;-64
2023/06/17 13:53:42;;;;;;;11.77;6.63;;;;;;;;;;4957985;28;20034;-64
2023/06/17 13:56:08;;;;;;;11.75;7.13;;;;;;;;;;4940244;28;20046;-65
2023/06/17 13:58:34;;;;;;;15.40;7.57;;;;;;;;;;4958050;28;20407;-64
2023/06/17 14:01:00;;;;;;;12.13;6.80;;;;;;;;;;4957504;28;20071;-64
2023/06/17 14:03:27;;;;;;;14.43;6.93;;;;;;;;;;4957152;28;20039;-64
2023/06/17 14:05:53;;;;;;;12.95;6.70;;;;;;;;;;4958170;28;20026;-64
2023/06/17 14:08:19;;;;;;;10.38;6.40;;;;;;;;;;4957444;28;20054;-64
2023/06/17 14:10:45;;;;;;;10.85;6.32;;;;;;;;;;4957400;28;20026;-65
2023/06/17 14:13:13;;;;;;;9.85;6.43;;;;;;;;;;4956057;28;20062;-65
2023/06/17 14:15:39;;;;;;;12.57;7.13;;;;;;;;;;4956140;28;20053;-65
2023/06/17 14:18:05;;;;;;;12.02;6.75;;;;;;;;;;4956997;28;21098;-64
2023/06/17 14:20:32;;;;;;;11.15;6.93;;;;;;;;;;4939509;28;20034;-64
2023/06/17 14:22:59;;;;;;;10.45;6.20;;;;;;;;;;4957862;28;20039;-65